createdAt,value
2023-12-12T00:02:16.746Z,1.80
2023-12-12T00:04:43.987Z,1.42
2023-12-12T00:07:11.104Z,1.95
2023-12-12T00:09:38.140Z,1.95
2023-12-12T00:12:05.552Z,1.73
2023-12-12T00:14:33.741Z,1.90
2023-12-12T00:17:00.634Z,2.20
2023-12-12T00:19:27.520Z,2.17
2023-12-12T00:21:54.401Z,1.98
2023-12-12T00:24:21.374Z,1.90
2023-12-12T00:26:49.099Z,2.13
2023-12-12T00:29:15.991Z,2.55
2023-12-12T00:31:44.227Z,2.28
2023-12-12T00:34:11.409Z,1.95
2023-12-12T00:36:38.356Z,1.88
2023-12-12T00:39:05.254Z,1.55
2023-12-12T00:41:33.744Z,1.70
2023-12-12T00:44:00.564Z,2.20
2023-12-12T00:46:27.809Z,1.55
2023-12-12T00:48:56.433Z,2.28
2023-12-12T00:51:23.344Z,1.70
2023-12-12T00:53:51.224Z,1.80
2023-12-12T00:56:18.152Z,1.70
2023-12-12T00:58:45.135Z,1.58
2023-12-12T01:01:12.194Z,1.65
2023-12-12T01:03:39.792Z,1.85
2023-12-12T01:06:08.595Z,1.48
2023-12-12T01:08:35.662Z,1.60
2023-12-12T01:11:02.588Z,1.95
2023-12-12T01:13:29.670Z,2.22
2023-12-12T01:15:56.682Z,2.33
2023-12-12T01:18:23.719Z,2.50
2023-12-12T01:20:50.615Z,2.35
2023-12-12T01:23:18.844Z,2.10
2023-12-12T01:25:45.692Z,2.00
2023-12-12T01:28:12.980Z,1.98
2023-12-12T01:30:40.244Z,1.95
2023-12-12T01:33:07.253Z,2.03
2023-12-12T01:35:34.282Z,2.28
2023-12-12T01:38:01.315Z,2.30
2023-12-12T01:40:29.693Z,2.67
2023-12-12T01:43:05.104Z,2.70
2023-12-12T01:45:31.968Z,2.45
2023-12-12T01:47:59.184Z,2.45
2023-12-12T01:50:26.393Z,2.42
2023-12-12T01:52:53.507Z,2.78
2023-12-12T01:55:20.770Z,2.85
2023-12-12T01:57:49.237Z,3.13
2023-12-12T02:00:16.441Z,2.63
2023-12-12T02:02:43.347Z,2.88
2023-12-12T02:05:10.645Z,3.13
2023-12-12T02:07:38.864Z,2.83
2023-12-12T02:10:06.375Z,3.40
2023-12-12T02:12:33.865Z,3.22
2023-12-12T02:15:02.244Z,3.72
2023-12-12T02:17:29.528Z,3.95
2023-12-12T02:19:58.406Z,3.90
2023-12-12T02:22:26.858Z,3.78
2023-12-12T02:24:54.309Z,3.88
2023-12-12T02:27:21.256Z,4.10
2023-12-12T02:29:48.759Z,3.92
2023-12-12T02:32:17.781Z,3.75
2023-12-12T02:34:44.986Z,3.88
2023-12-12T02:37:11.998Z,4.35
2023-12-12T02:39:42.863Z,3.42
2023-12-12T02:42:09.861Z,3.88
2023-12-12T02:44:36.946Z,3.72
2023-12-12T02:47:03.892Z,4.22
2023-12-12T02:49:30.897Z,3.97
2023-12-12T02:51:57.893Z,3.67
2023-12-12T02:54:24.702Z,3.17
2023-12-12T02:56:52.995Z,3.05
2023-12-12T02:59:19.810Z,3.15
2023-12-12T03:01:48.399Z,3.80
2023-12-12T03:04:15.538Z,4.20
2023-12-12T03:06:42.450Z,3.60
2023-12-12T03:09:09.357Z,3.92
2023-12-12T03:11:36.201Z,3.42
2023-12-12T03:14:04.390Z,3.65
2023-12-12T03:16:31.221Z,3.78
2023-12-12T03:18:58.242Z,3.85
2023-12-12T03:21:25.276Z,3.35
2023-12-12T03:23:52.264Z,3.70
2023-12-12T03:26:19.206Z,4.07
2023-12-12T03:28:46.087Z,4.15
2023-12-12T03:31:14.563Z,4.05
2023-12-12T03:33:41.479Z,4.20
2023-12-12T03:36:09.349Z,3.80
2023-12-12T03:38:36.208Z,3.60
2023-12-12T03:41:03.319Z,3.88
2023-12-12T03:43:30.285Z,4.07
2023-12-12T03:45:57.616Z,4.20
2023-12-12T03:48:25.906Z,4.15
2023-12-12T03:50:52.948Z,4.00
2023-12-12T03:53:19.787Z,4.07
2023-12-12T03:55:46.639Z,4.20
2023-12-12T03:58:13.912Z,4.32
2023-12-12T04:00:41.052Z,4.53
2023-12-12T04:03:08.283Z,4.03
2023-12-12T04:05:36.737Z,3.90
2023-12-12T04:08:03.568Z,4.05
2023-12-12T04:10:30.420Z,3.38
2023-12-12T04:12:58.283Z,3.97
2023-12-12T04:15:25.254Z,3.30
2023-12-12T04:17:52.136Z,3.58
2023-12-12T04:20:19.342Z,3.25
2023-12-12T04:22:47.673Z,2.88
2023-12-12T04:25:15.106Z,2.88
2023-12-12T04:27:43.382Z,3.33
2023-12-12T04:30:11.289Z,3.63
2023-12-12T04:32:38.152Z,3.45
2023-12-12T04:35:07.391Z,2.65
2023-12-12T04:37:34.577Z,3.67
2023-12-12T04:40:03.087Z,3.05
2023-12-12T04:42:30.253Z,3.22
2023-12-12T04:44:57.073Z,3.15
2023-12-12T04:47:24.750Z,3.45
2023-12-12T04:49:52.691Z,2.78
2023-12-12T04:52:19.711Z,2.70
2023-12-12T04:54:46.546Z,3.05
2023-12-12T04:57:14.894Z,3.25
2023-12-12T04:59:41.778Z,3.13
2023-12-12T05:02:08.805Z,3.40
2023-12-12T05:04:37.110Z,3.40
2023-12-12T05:07:04.359Z,2.95
2023-12-12T05:09:32.436Z,3.67
2023-12-12T05:11:59.620Z,4.63
2023-12-12T05:14:27.823Z,4.22
2023-12-12T05:17:01.435Z,3.60
2023-12-12T05:19:34.564Z,4.38
2023-12-12T05:22:01.479Z,4.18
2023-12-12T05:24:28.264Z,4.13
2023-12-12T05:26:55.149Z,4.38
2023-12-12T05:29:21.992Z,3.95
2023-12-12T05:31:50.452Z,3.95
2023-12-12T05:34:17.489Z,4.03
2023-12-12T05:36:44.402Z,3.38
2023-12-12T05:39:11.425Z,3.70
2023-12-12T05:41:38.497Z,3.42
2023-12-12T05:44:07.004Z,3.42
2023-12-12T05:46:35.005Z,3.33
2023-12-12T05:49:04.360Z,3.63
2023-12-12T05:51:31.573Z,3.15
2023-12-12T05:53:58.662Z,3.38
2023-12-12T05:56:25.701Z,3.50
2023-12-12T05:58:52.943Z,3.60
2023-12-12T06:01:19.992Z,3.45
2023-12-12T06:03:47.058Z,3.10
2023-12-12T06:06:15.489Z,3.13
2023-12-12T06:08:42.937Z,3.28
2023-12-12T06:11:09.845Z,3.10
2023-12-12T06:13:37.148Z,3.13
2023-12-12T06:16:04.458Z,3.30
2023-12-12T06:18:31.786Z,3.38
2023-12-12T06:20:58.628Z,3.20
2023-12-12T06:23:27.008Z,3.40
2023-12-12T06:25:55.199Z,3.80
2023-12-12T06:28:22.134Z,3.90
2023-12-12T06:30:49.084Z,3.72
2023-12-12T06:33:18.027Z,3.47
2023-12-12T06:35:44.904Z,3.75
2023-12-12T06:38:11.855Z,3.20
2023-12-12T06:40:40.368Z,3.47
2023-12-12T06:43:07.291Z,3.13
2023-12-12T06:45:34.429Z,3.50
2023-12-12T06:48:01.550Z,3.22
2023-12-12T06:50:28.396Z,3.33
2023-12-12T06:52:55.971Z,3.35
2023-12-12T06:55:23.802Z,4.00
2023-12-12T06:57:52.049Z,3.10
2023-12-12T07:00:21.160Z,3.45
2023-12-12T07:02:47.987Z,3.40
2023-12-12T07:05:16.605Z,3.13
2023-12-12T07:07:45.057Z,2.90
2023-12-12T07:10:12.755Z,3.88
2023-12-12T07:12:39.760Z,3.30
2023-12-12T07:15:08.632Z,3.92
2023-12-12T07:17:35.800Z,3.55
2023-12-12T07:20:03.579Z,3.30
2023-12-12T07:22:32.081Z,3.53
2023-12-12T07:24:58.984Z,3.10
2023-12-12T07:27:26.896Z,2.80
2023-12-12T07:29:54.118Z,3.20
2023-12-12T07:32:22.602Z,3.63
2023-12-12T07:34:49.547Z,3.38
2023-12-12T07:37:16.506Z,3.53
2023-12-12T07:39:43.433Z,3.17
2023-12-12T07:42:11.072Z,3.30
2023-12-12T07:44:38.034Z,3.22
2023-12-12T07:47:05.291Z,3.28
2023-12-12T07:49:33.717Z,2.95
2023-12-12T07:52:00.881Z,3.35
2023-12-12T07:54:27.752Z,3.72
2023-12-12T07:56:55.438Z,3.55
2023-12-12T07:59:22.526Z,3.30
2023-12-12T08:01:49.617Z,3.08
2023-12-12T08:04:16.919Z,3.33
2023-12-12T08:06:45.358Z,3.42
2023-12-12T08:09:12.216Z,2.92
2023-12-12T08:11:39.286Z,2.85
2023-12-12T08:14:06.284Z,3.60
2023-12-12T08:16:33.399Z,2.75
2023-12-12T08:19:02.954Z,2.83
2023-12-12T08:21:30.707Z,3.10
2023-12-12T08:23:58.905Z,3.15
2023-12-12T08:26:25.762Z,2.70
2023-12-12T08:28:52.685Z,3.30
2023-12-12T08:31:19.550Z,2.35
2023-12-12T08:33:46.516Z,3.00
2023-12-12T08:36:13.560Z,3.17
2023-12-12T08:38:40.438Z,3.30
2023-12-12T08:41:11.258Z,2.78
2023-12-12T08:43:41.225Z,3.30
2023-12-12T08:46:08.179Z,2.30
2023-12-12T08:48:35.177Z,3.35
2023-12-12T08:51:02.216Z,3.35
2023-12-12T08:53:29.040Z,2.92
2023-12-12T08:55:57.279Z,4.43
2023-12-12T08:58:26.847Z,3.55
2023-12-12T09:00:57.082Z,3.30
2023-12-12T09:03:23.998Z,3.20
2023-12-12T09:05:50.926Z,3.40
2023-12-12T09:08:18.075Z,3.05
2023-12-12T09:10:44.968Z,2.83
2023-12-12T09:13:12.021Z,2.53
2023-12-12T09:15:40.246Z,2.50
2023-12-12T09:18:16.765Z,3.40
2023-12-12T09:20:47.710Z,3.30
2023-12-12T09:23:14.767Z,3.00
2023-12-12T09:25:41.590Z,3.33
2023-12-12T09:28:08.488Z,3.00
2023-12-12T09:30:35.438Z,3.00
2023-12-12T09:33:04.006Z,2.80
2023-12-12T09:35:31.021Z,2.95
2023-12-12T09:37:57.953Z,3.10
2023-12-12T09:40:24.861Z,3.10
2023-12-12T09:42:53.743Z,3.40
2023-12-12T09:45:23.748Z,4.00
2023-12-12T09:47:52.353Z,3.67
2023-12-12T09:50:21.045Z,2.75
2023-12-12T09:52:50.332Z,2.85
2023-12-12T09:55:20.445Z,3.35
2023-12-12T09:57:47.605Z,3.05
2023-12-12T10:00:15.856Z,3.15
2023-12-12T10:02:43.241Z,3.45
2023-12-12T10:05:12.056Z,2.95
2023-12-12T10:07:44.012Z,2.50
2023-12-12T10:10:13.918Z,2.35
2023-12-12T10:12:41.310Z,2.50
2023-12-12T10:15:23.510Z,2.65
2023-12-12T10:17:56.323Z,2.55
2023-12-12T10:20:26.637Z,2.85
2023-12-12T10:22:58.392Z,2.53
2023-12-12T10:25:26.016Z,2.22
2023-12-12T10:27:57.145Z,2.30
2023-12-12T10:30:24.401Z,2.25
2023-12-12T10:32:54.937Z,2.88
2023-12-12T10:35:23.253Z,2.20
2023-12-12T10:37:50.280Z,2.20
2023-12-12T10:40:23.621Z,1.42
2023-12-12T10:42:52.170Z,2.17
2023-12-12T10:45:22.265Z,2.70
2023-12-12T10:47:51.954Z,3.00
2023-12-12T10:50:20.453Z,2.58
2023-12-12T10:52:51.090Z,2.92
2023-12-12T10:55:20.900Z,2.13
2023-12-12T10:57:48.843Z,2.97
2023-12-12T11:00:19.571Z,2.50
2023-12-12T11:02:48.816Z,2.63
2023-12-12T11:05:16.760Z,2.38
2023-12-12T11:07:49.642Z,1.80
2023-12-12T11:10:23.146Z,2.15
2023-12-12T11:12:53.608Z,2.70
2023-12-12T11:15:21.757Z,2.65
2023-12-12T11:17:48.995Z,2.05
2023-12-12T11:20:17.369Z,2.53
2023-12-12T11:22:46.337Z,2.72
2023-12-12T11:25:17.607Z,2.45
2023-12-12T11:27:52.079Z,2.47
2023-12-12T11:30:20.899Z,2.15
2023-12-12T11:32:48.892Z,2.25
2023-12-12T11:35:27.320Z,2.83
2023-12-12T11:37:55.468Z,1.80
2023-12-12T11:40:24.831Z,2.45
2023-12-12T11:42:55.904Z,1.73
2023-12-12T11:45:33.449Z,1.30
2023-12-12T11:48:04.925Z,1.35
2023-12-12T11:50:33.078Z,1.50
2023-12-12T11:53:02.681Z,1.70
2023-12-12T11:55:32.537Z,1.60
2023-12-12T11:58:02.877Z,1.63
2023-12-12T12:00:34.502Z,1.67
2023-12-12T12:03:02.253Z,1.77
2023-12-12T12:05:29.273Z,1.60
2023-12-12T12:07:59.504Z,1.30
2023-12-12T12:10:26.865Z,1.80
2023-12-12T12:12:58.469Z,1.65
2023-12-12T12:15:28.173Z,1.48
2023-12-12T12:17:55.714Z,1.42
2023-12-12T12:20:22.816Z,2.03
2023-12-12T12:22:49.973Z,1.35
2023-12-12T12:25:22.371Z,1.00
2023-12-12T12:27:52.977Z,1.27
2023-12-12T12:30:20.842Z,1.27
2023-12-12T12:33:02.763Z,1.40
2023-12-12T12:35:30.150Z,1.40
2023-12-12T12:37:58.810Z,0.90
2023-12-12T12:40:34.805Z,1.08
2023-12-12T12:43:06.379Z,1.05
2023-12-12T12:45:34.270Z,1.20
2023-12-12T12:48:09.038Z,0.82
2023-12-12T12:50:35.992Z,0.85
2023-12-12T12:53:04.791Z,0.93
2023-12-12T12:55:32.219Z,1.10
2023-12-12T12:57:59.284Z,1.17
2023-12-12T13:00:27.644Z,1.13
2023-12-12T13:02:55.425Z,1.00
2023-12-12T13:05:24.350Z,0.60
2023-12-12T13:07:51.261Z,0.80
2023-12-12T13:10:18.734Z,0.77
2023-12-12T13:12:45.977Z,1.02
2023-12-12T13:15:13.196Z,0.63
2023-12-12T13:17:40.703Z,0.80
2023-12-12T13:20:11.927Z,0.90
2023-12-12T13:22:42.095Z,0.63
2023-12-12T13:25:10.285Z,0.43
2023-12-12T13:27:39.852Z,0.50
2023-12-12T13:30:11.794Z,0.60
2023-12-12T13:35:18.244Z,1.00
2023-12-12T13:37:55.648Z,0.80
2023-12-12T13:40:24.636Z,0.77
2023-12-12T13:42:52.195Z,0.70
2023-12-12T13:45:20.201Z,0.73
2023-12-12T13:47:48.908Z,0.77
2023-12-12T13:50:16.656Z,0.52
2023-12-12T13:52:44.124Z,0.50
2023-12-12T13:55:12.509Z,0.40
2023-12-12T13:57:39.430Z,0.90
2023-12-12T14:00:10.422Z,0.60
2023-12-12T14:02:38.086Z,0.73
2023-12-12T14:05:06.374Z,0.73
2023-12-12T14:07:34.530Z,0.80
2023-12-12T14:10:02.312Z,0.60
2023-12-12T14:12:30.895Z,0.65
2023-12-12T14:14:58.225Z,0.70
2023-12-12T14:17:25.149Z,0.95
2023-12-12T14:19:52.186Z,0.70
2023-12-12T14:22:19.994Z,0.40
2023-12-12T14:24:47.839Z,0.73
2023-12-12T14:27:14.630Z,0.70
2023-12-12T14:29:43.845Z,0.70
2023-12-12T14:32:11.299Z,0.85
2023-12-12T14:34:38.596Z,0.90
2023-12-12T14:37:05.849Z,0.98
2023-12-12T14:39:32.696Z,0.82
2023-12-12T14:42:00.230Z,0.93
2023-12-12T14:44:27.031Z,1.10
2023-12-12T14:46:55.879Z,1.20
2023-12-12T14:49:23.598Z,0.70
2023-12-12T14:51:52.893Z,0.98
2023-12-12T14:54:19.807Z,1.60
2023-12-12T14:56:46.682Z,1.50
2023-12-12T14:59:13.962Z,1.40
2023-12-12T15:01:40.897Z,1.20
2023-12-12T15:04:09.293Z,1.38
2023-12-12T15:06:36.415Z,1.50
2023-12-12T15:09:05.095Z,1.60
2023-12-12T15:11:32.544Z,1.50
2023-12-12T15:13:59.531Z,1.67
2023-12-12T15:16:26.869Z,1.50
2023-12-12T15:18:53.835Z,1.75
2023-12-12T15:21:25.663Z,1.30
2023-12-12T15:23:53.161Z,1.48
2023-12-12T15:26:20.490Z,1.40
2023-12-12T15:28:47.556Z,1.38
2023-12-12T15:31:14.519Z,2.00
2023-12-12T15:33:42.926Z,1.85
2023-12-12T15:36:10.946Z,1.40
2023-12-12T15:38:41.586Z,1.40
2023-12-12T15:41:08.374Z,1.30
2023-12-12T15:43:35.728Z,1.50
2023-12-12T15:46:02.901Z,1.98
2023-12-12T15:48:30.790Z,1.65
2023-12-12T15:50:57.749Z,1.90
2023-12-12T15:53:25.080Z,2.67
2023-12-12T15:55:53.382Z,2.17
2023-12-12T15:58:21.190Z,2.42
2023-12-12T16:00:48.505Z,2.65
2023-12-12T16:03:15.468Z,2.13
2023-12-12T16:05:43.683Z,2.45
2023-12-12T16:08:13.341Z,2.80
2023-12-12T16:10:40.750Z,2.42
2023-12-12T16:13:09.111Z,2.75
2023-12-12T16:15:39.080Z,2.22
2023-12-12T16:18:06.052Z,2.40
2023-12-12T16:20:32.939Z,2.50
2023-12-12T16:22:59.863Z,3.05
2023-12-12T16:25:27.311Z,2.35
2023-12-12T16:27:55.256Z,3.60
2023-12-12T16:30:24.028Z,2.72
2023-12-12T16:32:55.528Z,3.15
2023-12-12T16:35:24.625Z,2.70
2023-12-12T16:37:53.547Z,3.10
2023-12-12T16:40:20.676Z,3.10
2023-12-12T16:42:47.743Z,2.08
2023-12-12T16:45:16.723Z,2.60
2023-12-12T16:47:45.619Z,2.60
2023-12-12T16:50:12.796Z,3.10
2023-12-12T16:52:39.952Z,2.60
2023-12-12T16:55:08.175Z,2.67
2023-12-12T16:57:37.137Z,2.83
2023-12-12T17:00:09.249Z,3.00
2023-12-12T17:02:36.376Z,2.78
2023-12-12T17:05:08.143Z,2.72
2023-12-12T17:07:35.574Z,3.25
2023-12-12T17:10:08.091Z,3.53
2023-12-12T17:12:35.369Z,3.10
2023-12-12T17:15:02.330Z,2.80
2023-12-12T17:17:31.454Z,2.72
2023-12-12T17:19:58.838Z,3.38
2023-12-12T17:22:27.156Z,3.05
2023-12-12T17:24:54.647Z,2.63
2023-12-12T17:27:21.791Z,3.58
2023-12-12T17:29:48.547Z,2.47
2023-12-12T17:32:15.638Z,3.22
2023-12-12T17:34:47.368Z,3.10
2023-12-12T17:39:45.958Z,3.05
2023-12-12T17:42:12.814Z,2.72
2023-12-12T17:44:40.570Z,3.10
2023-12-12T17:47:07.527Z,3.40
2023-12-12T17:49:34.536Z,3.28
2023-12-12T17:52:02.102Z,3.20
2023-12-12T17:54:28.929Z,3.05
2023-12-12T17:56:57.123Z,3.05
2023-12-12T17:59:24.143Z,3.40
2023-12-12T18:01:51.220Z,3.50
2023-12-12T18:04:18.235Z,3.55
2023-12-12T18:06:45.138Z,3.88
2023-12-12T18:09:12.044Z,3.60
2023-12-12T18:11:39.287Z,3.85
2023-12-12T18:14:07.607Z,3.80
2023-12-12T18:16:35.116Z,3.67
2023-12-12T18:19:04.871Z,5.13
2023-12-12T18:21:33.099Z,3.58
2023-12-12T18:24:00.082Z,3.70
2023-12-12T18:26:30.037Z,4.00
2023-12-12T18:29:01.650Z,3.40
2023-12-12T18:31:31.446Z,4.18
2023-12-12T18:33:59.121Z,4.30
2023-12-12T18:36:26.365Z,3.63
2023-12-12T18:38:53.438Z,3.88
2023-12-12T18:41:21.774Z,3.58
2023-12-12T18:43:49.055Z,3.30
2023-12-12T18:46:17.032Z,2.97
2023-12-12T18:48:45.472Z,3.65
2023-12-12T18:51:13.307Z,3.00
2023-12-12T18:53:40.755Z,2.90
2023-12-12T18:56:10.389Z,3.40
2023-12-12T18:58:37.445Z,2.42
2023-12-12T19:01:05.638Z,2.95
2023-12-12T19:03:34.358Z,2.47
2023-12-12T19:06:04.888Z,2.90
2023-12-12T19:08:32.452Z,2.60
2023-12-12T19:10:59.359Z,2.70
2023-12-12T19:13:29.833Z,2.83
2023-12-12T19:15:58.163Z,2.83
2023-12-12T19:18:25.359Z,2.80
2023-12-12T19:20:52.249Z,3.00
2023-12-12T19:23:20.663Z,3.00
2023-12-12T19:25:47.523Z,2.83
2023-12-12T19:28:14.526Z,3.08
2023-12-12T19:30:41.535Z,2.90
2023-12-12T19:33:08.618Z,3.05
2023-12-12T19:35:38.918Z,3.03
2023-12-12T19:38:07.444Z,2.35
2023-12-12T19:40:37.576Z,2.75
2023-12-12T19:43:04.769Z,3.05
2023-12-12T19:45:31.784Z,2.53
2023-12-12T19:47:59.260Z,2.25
2023-12-12T19:50:26.285Z,3.10
2023-12-12T19:52:53.944Z,2.58
2023-12-12T19:55:21.001Z,2.65
2023-12-12T19:57:49.183Z,2.70
2023-12-12T20:00:16.616Z,2.20
2023-12-12T20:02:43.348Z,2.33
2023-12-12T20:05:10.295Z,2.15
2023-12-12T20:07:39.312Z,2.00
2023-12-12T20:10:07.592Z,2.45
2023-12-12T20:12:34.610Z,2.50
2023-12-12T20:15:04.251Z,2.50
2023-12-12T20:17:31.261Z,2.33
2023-12-12T20:19:58.314Z,2.50
2023-12-12T20:22:25.433Z,1.88
2023-12-12T20:24:52.757Z,2.10
2023-12-12T20:27:19.741Z,2.22
2023-12-12T20:29:47.886Z,1.88
2023-12-12T20:32:17.381Z,1.75
2023-12-12T20:34:44.624Z,1.60
2023-12-12T20:37:11.647Z,1.63
2023-12-12T20:39:38.560Z,1.80
2023-12-12T20:42:06.130Z,1.42
2023-12-12T20:44:32.960Z,1.17
2023-12-12T20:46:59.894Z,1.58
2023-12-12T20:49:28.228Z,2.03
2023-12-12T20:51:58.240Z,2.13
2023-12-12T20:54:26.434Z,2.10
2023-12-12T20:56:54.306Z,1.50
2023-12-12T20:59:21.509Z,2.28
2023-12-12T21:01:48.679Z,3.28
2023-12-12T21:04:16.834Z,1.58
2023-12-12T21:06:45.189Z,1.70
2023-12-12T21:09:15.691Z,1.27
2023-12-12T21:11:43.068Z,1.88
2023-12-12T21:14:11.125Z,1.77
2023-12-12T21:16:37.985Z,1.42
2023-12-12T21:19:05.446Z,1.20
2023-12-12T21:21:32.273Z,1.35
2023-12-12T21:24:00.767Z,1.15
2023-12-12T21:26:27.664Z,1.55
2023-12-12T21:28:54.582Z,1.50
2023-12-12T21:31:22.964Z,1.40
2023-12-12T21:33:49.954Z,1.30
2023-12-12T21:36:17.224Z,1.27
2023-12-12T21:38:46.225Z,1.27
2023-12-12T21:41:15.398Z,1.20
2023-12-12T21:43:43.447Z,1.20
2023-12-12T21:46:10.994Z,1.35
2023-12-12T21:48:37.926Z,0.93
2023-12-12T21:51:05.680Z,1.23
2023-12-12T21:53:34.308Z,1.08
2023-12-12T21:56:02.977Z,0.88
2023-12-12T21:58:31.185Z,1.10
2023-12-12T22:00:58.008Z,1.10
2023-12-12T22:03:24.883Z,1.10
2023-12-12T22:05:52.016Z,1.25
2023-12-12T22:08:18.962Z,1.35
2023-12-12T22:10:46.289Z,1.50
2023-12-12T22:13:16.661Z,1.58
2023-12-12T22:15:45.059Z,1.75
2023-12-12T22:18:14.485Z,2.00
2023-12-12T22:20:41.626Z,1.92
2023-12-12T22:23:08.634Z,1.88
2023-12-12T22:25:35.534Z,1.38
2023-12-12T22:28:02.756Z,1.73
2023-12-12T22:30:29.696Z,1.90
2023-12-12T22:32:58.088Z,1.70
2023-12-12T22:35:25.428Z,1.70
2023-12-12T22:37:52.544Z,1.90
2023-12-12T22:40:19.442Z,1.70
2023-12-12T22:42:46.245Z,1.60
2023-12-12T22:45:13.112Z,1.83
2023-12-12T22:47:40.029Z,1.60
2023-12-12T22:50:09.403Z,1.80
2023-12-12T22:52:36.285Z,1.60
2023-12-12T22:55:03.393Z,1.52
2023-12-12T22:57:30.445Z,1.50
2023-12-12T22:59:57.499Z,1.50
2023-12-12T23:02:24.297Z,1.30
2023-12-12T23:04:51.354Z,1.23
2023-12-12T23:07:19.685Z,1.50
2023-12-12T23:09:46.555Z,1.42
2023-12-12T23:12:13.425Z,1.40
2023-12-12T23:14:40.241Z,1.55
2023-12-12T23:17:07.129Z,1.38
2023-12-12T23:19:34.031Z,1.77
2023-12-12T23:22:00.969Z,1.30
2023-12-12T23:24:31.558Z,1.60
2023-12-12T23:26:58.679Z,1.40
2023-12-12T23:29:25.546Z,1.23
2023-12-12T23:31:52.437Z,1.25
2023-12-12T23:34:19.471Z,1.52
2023-12-12T23:36:46.429Z,1.30
2023-12-12T23:39:13.390Z,1.50
2023-12-12T23:41:53.827Z,1.40
2023-12-12T23:44:22.905Z,1.50
2023-12-12T23:46:51.666Z,1.85
2023-12-12T23:49:18.662Z,1.40
2023-12-12T23:51:45.564Z,1.50
2023-12-12T23:54:12.478Z,1.60
2023-12-12T23:56:39.341Z,1.45
2023-12-12T23:59:07.737Z,1.40
